sensor_id;sensor_type;location;lat;lon;timestamp;pressure;altitude;pressure_sealevel;temperature;humidity
49825;BME280;35714;55.708;37.478;2023-04-01T00:00:52;97969.50;;;3.38;66.53
49825;BME280;35714;55.708;37.478;2023-04-01T00:03:18;97971.59;;;3.36;66.79
49825;BME280;35714;55.708;37.478;2023-04-01T00:05:45;97974.84;;;3.38;66.82
49825;BME280;35714;55.708;37.478;2023-04-01T00:08:11;97980.06;;;3.51;66.77
49825;BME280;35714;55.708;37.478;2023-04-01T00:10:36;97960.63;;;3.56;66.38
49825;BME280;35714;55.708;37.478;2023-04-01T00:13:02;97971.91;;;3.76;66.73
49825;BME280;35714;55.708;37.478;2023-04-01T00:15:28;97975.00;;;3.92;66.45
49825;BME280;35714;55.708;37.478;2023-04-01T00:17:53;97970.28;;;4.06;66.04
49825;BME280;35714;55.708;37.478;2023-04-01T00:20:20;97969.50;;;4.17;65.62
49825;BME280;35714;55.708;37.478;2023-04-01T00:22:45;97969.63;;;4.22;65.58
49825;BME280;35714;55.708;37.478;2023-04-01T00:25:11;97970.06;;;4.19;65.06
49825;BME280;35714;55.708;37.478;2023-04-01T00:27:37;97965.75;;;4.18;64.94
49825;BME280;35714;55.708;37.478;2023-04-01T00:30:04;97961.00;;;4.20;65.25
49825;BME280;35714;55.708;37.478;2023-04-01T00:32:30;97962.53;;;4.28;65.17
49825;BME280;35714;55.708;37.478;2023-04-01T00:34:56;97958.09;;;4.33;64.84
49825;BME280;35714;55.708;37.478;2023-04-01T00:37:24;97944.66;;;4.33;64.80
49825;BME280;35714;55.708;37.478;2023-04-01T00:39:50;97948.41;;;4.32;64.55
49825;BME280;35714;55.708;37.478;2023-04-01T00:42:15;97947.97;;;4.36;64.66
49825;BME280;35714;55.708;37.478;2023-04-01T00:44:44;97953.31;;;4.36;64.30
49825;BME280;35714;55.708;37.478;2023-04-01T00:47:10;97949.13;;;4.40;64.39
49825;BME280;35714;55.708;37.478;2023-04-01T00:49:42;97950.28;;;4.44;64.59
49825;BME280;35714;55.708;37.478;2023-04-01T00:52:11;97953.56;;;4.46;64.66
49825;BME280;35714;55.708;37.478;2023-04-01T00:54:39;97951.81;;;4.51;64.35
49825;BME280;35714;55.708;37.478;2023-04-01T00:57:30;97951.38;;;4.55;64.08
49825;BME280;35714;55.708;37.478;2023-04-01T00:59:57;97954.03;;;4.55;64.22
49825;BME280;35714;55.708;37.478;2023-04-01T01:02:24;97958.13;;;4.57;64.10
49825;BME280;35714;55.708;37.478;2023-04-01T01:04:50;97944.81;;;4.50;64.17
49825;BME280;35714;55.708;37.478;2023-04-01T01:07:34;97958.72;;;4.59;64.01
49825;BME280;35714;55.708;37.478;2023-04-01T01:10:19;97952.06;;;4.62;63.93
49825;BME280;35714;55.708;37.478;2023-04-01T01:15:44;97957.19;;;4.51;63.97
49825;BME280;35714;55.708;37.478;2023-04-01T01:21:07;97956.81;;;4.48;63.99
49825;BME280;35714;55.708;37.478;2023-04-01T01:31:50;97968.38;;;4.48;64.49
49825;BME280;35714;55.708;37.478;2023-04-01T01:36:48;97953.09;;;4.49;64.35
49825;BME280;35714;55.708;37.478;2023-04-01T01:39:18;97957.28;;;4.45;64.02
49825;BME280;35714;55.708;37.478;2023-04-01T01:41:46;97954.03;;;4.43;63.93
49825;BME280;35714;55.708;37.478;2023-04-01T01:44:15;97955.19;;;4.47;64.19
49825;BME280;35714;55.708;37.478;2023-04-01T01:46:43;97953.44;;;4.52;64.18
49825;BME280;35714;55.708;37.478;2023-04-01T01:49:11;97961.63;;;4.58;64.05
49825;BME280;35714;55.708;37.478;2023-04-01T01:51:38;97964.09;;;4.59;63.97
49825;BME280;35714;55.708;37.478;2023-04-01T01:54:12;97964.66;;;4.73;63.89
49825;BME280;35714;55.708;37.478;2023-04-01T01:56:38;97960.69;;;4.76;63.45
49825;BME280;35714;55.708;37.478;2023-04-01T01:59:08;97965.03;;;4.77;63.46
49825;BME280;35714;55.708;37.478;2023-04-01T02:01:40;97957.53;;;4.79;63.58
49825;BME280;35714;55.708;37.478;2023-04-01T02:04:11;97959.44;;;4.78;63.39
49825;BME280;35714;55.708;37.478;2023-04-01T02:06:43;97957.88;;;4.82;63.36
49825;BME280;35714;55.708;37.478;2023-04-01T02:09:11;97959.19;;;4.80;63.02
49825;BME280;35714;55.708;37.478;2023-04-01T02:11:52;97958.72;;;4.83;63.33
49825;BME280;35714;55.708;37.478;2023-04-01T02:17:11;97957.78;;;4.65;63.26
49825;BME280;35714;55.708;37.478;2023-04-01T02:19:40;97973.28;;;4.63;63.19
49825;BME280;35714;55.708;37.478;2023-04-01T02:22:14;97960.34;;;4.48;63.20
49825;BME280;35714;55.708;37.478;2023-04-01T02:24:43;97971.06;;;4.48;63.33
49825;BME280;35714;55.708;37.478;2023-04-01T02:27:10;97967.09;;;4.39;63.55
49825;BME280;35714;55.708;37.478;2023-04-01T02:29:36;97968.25;;;4.31;63.79
49825;BME280;35714;55.708;37.478;2023-04-01T02:32:07;97974.06;;;4.28;63.79
49825;BME280;35714;55.708;37.478;2023-04-01T02:34:33;97975.34;;;4.26;64.04
49825;BME280;35714;55.708;37.478;2023-04-01T02:37:00;97982.22;;;4.33;64.09
49825;BME280;35714;55.708;37.478;2023-04-01T02:39:26;97976.06;;;4.33;64.09
49825;BME280;35714;55.708;37.478;2023-04-01T02:41:51;97979.09;;;4.37;64.10
49825;BME280;35714;55.708;37.478;2023-04-01T02:44:18;97984.47;;;4.37;63.82
49825;BME280;35714;55.708;37.478;2023-04-01T02:46:43;97987.13;;;4.37;63.86
49825;BME280;35714;55.708;37.478;2023-04-01T02:49:09;97980.63;;;4.32;63.66
49825;BME280;35714;55.708;37.478;2023-04-01T02:51:35;97988.28;;;4.29;63.91
49825;BME280;35714;55.708;37.478;2023-04-01T02:54:01;97986.06;;;4.26;64.25
49825;BME280;35714;55.708;37.478;2023-04-01T02:56:27;97987.84;;;4.32;64.40
49825;BME280;35714;55.708;37.478;2023-04-01T02:58:54;97982.63;;;4.37;64.14
49825;BME280;35714;55.708;37.478;2023-04-01T03:01:20;97981.78;;;4.37;64.03
49825;BME280;35714;55.708;37.478;2023-04-01T03:03:46;97987.59;;;4.33;63.95
49825;BME280;35714;55.708;37.478;2023-04-01T03:06:14;97987.13;;;4.37;64.14
49825;BME280;35714;55.708;37.478;2023-04-01T03:08:40;97985.28;;;4.37;63.91
49825;BME280;35714;55.708;37.478;2023-04-01T03:11:06;97995.31;;;4.30;64.09
49825;BME280;35714;55.708;37.478;2023-04-01T03:13:34;97983.00;;;4.10;64.12
49825;BME280;35714;55.708;37.478;2023-04-01T03:16:00;97998.50;;;4.08;64.51
49825;BME280;35714;55.708;37.478;2023-04-01T03:18:26;97994.28;;;4.01;64.84
49825;BME280;35714;55.708;37.478;2023-04-01T03:20:52;98002.63;;;3.92;64.76
49825;BME280;35714;55.708;37.478;2023-04-01T03:23:17;97998.09;;;3.93;65.26
49825;BME280;35714;55.708;37.478;2023-04-01T03:25:45;98001.16;;;3.96;65.23
49825;BME280;35714;55.708;37.478;2023-04-01T03:28:10;97996.81;;;3.95;65.39
49825;BME280;35714;55.708;37.478;2023-04-01T03:30:37;98006.41;;;4.03;65.35
49825;BME280;35714;55.708;37.478;2023-04-01T03:33:03;98006.31;;;4.10;65.12
49825;BME280;35714;55.708;37.478;2023-04-01T03:35:30;98006.94;;;4.12;65.26
49825;BME280;35714;55.708;37.478;2023-04-01T03:37:57;98015.56;;;4.14;64.78
49825;BME280;35714;55.708;37.478;2023-04-01T03:40:22;98005.63;;;4.14;64.77
49825;BME280;35714;55.708;37.478;2023-04-01T03:42:49;98006.47;;;4.15;64.98
49825;BME280;35714;55.708;37.478;2023-04-01T03:45:14;98017.09;;;4.22;64.76
49825;BME280;35714;55.708;37.478;2023-04-01T03:47:41;98022.00;;;4.25;65.15
49825;BME280;35714;55.708;37.478;2023-04-01T03:50:07;98028.00;;;4.39;65.04
49825;BME280;35714;55.708;37.478;2023-04-01T03:52:34;98022.88;;;4.49;64.48
49825;BME280;35714;55.708;37.478;2023-04-01T03:55:00;98027.06;;;4.45;64.11
49825;BME280;35714;55.708;37.478;2023-04-01T03:57:31;98030.00;;;4.43;64.52
49825;BME280;35714;55.708;37.478;2023-04-01T04:00:02;98038.97;;;4.49;64.52
49825;BME280;35714;55.708;37.478;2023-04-01T04:02:29;98037.25;;;4.55;64.27
49825;BME280;35714;55.708;37.478;2023-04-01T04:04:55;98037.59;;;4.58;64.50
49825;BME280;35714;55.708;37.478;2023-04-01T04:07:23;98039.94;;;4.66;64.55
49825;BME280;35714;55.708;37.478;2023-04-01T04:10:02;98041.47;;;4.74;64.14
49825;BME280;35714;55.708;37.478;2023-04-01T04:12:28;98043.47;;;4.79;64.08
49825;BME280;35714;55.708;37.478;2023-04-01T04:14:54;98053.75;;;4.82;63.89
49825;BME280;35714;55.708;37.478;2023-04-01T04:17:20;98050.03;;;4.83;63.83
49825;BME280;35714;55.708;37.478;2023-04-01T04:19:46;98040.66;;;4.74;63.69
49825;BME280;35714;55.708;37.478;2023-04-01T04:22:12;98058.53;;;4.92;64.02
49825;BME280;35714;55.708;37.478;2023-04-01T04:24:38;98054.34;;;4.96;63.56
49825;BME280;35714;55.708;37.478;2023-04-01T04:27:08;98063.09;;;4.91;63.42
49825;BME280;35714;55.708;37.478;2023-04-01T04:29:36;98060.03;;;4.76;63.18
49825;BME280;35714;55.708;37.478;2023-04-01T04:32:02;98065.19;;;4.65;63.35
49825;BME280;35714;55.708;37.478;2023-04-01T04:34:28;98065.38;;;4.52;63.68
49825;BME280;35714;55.708;37.478;2023-04-01T04:36:54;98065.13;;;4.42;64.26
49825;BME280;35714;55.708;37.478;2023-04-01T04:39:22;98066.72;;;4.43;64.21
49825;BME280;35714;55.708;37.478;2023-04-01T04:41:48;98068.72;;;4.36;64.33
49825;BME280;35714;55.708;37.478;2023-04-01T04:44:14;98064.38;;;4.34;64.75
49825;BME280;35714;55.708;37.478;2023-04-01T04:46:41;98068.56;;;4.30;64.53
49825;BME280;35714;55.708;37.478;2023-04-01T04:49:11;98065.88;;;4.30;64.66
49825;BME280;35714;55.708;37.478;2023-04-01T04:51:37;98068.19;;;4.27;64.63
49825;BME280;35714;55.708;37.478;2023-04-01T04:54:04;98081.84;;;4.25;64.92
49825;BME280;35714;55.708;37.478;2023-04-01T04:56:56;98074.38;;;4.27;64.78
49825;BME280;35714;55.708;37.478;2023-04-01T04:59:24;98082.13;;;4.36;64.87
49825;BME280;35714;55.708;37.478;2023-04-01T05:02:04;98088.31;;;4.36;64.89
49825;BME280;35714;55.708;37.478;2023-04-01T05:04:34;98083.69;;;4.43;65.06
49825;BME280;35714;55.708;37.478;2023-04-01T05:07:00;98087.28;;;4.49;65.18
49825;BME280;35714;55.708;37.478;2023-04-01T05:09:26;98088.03;;;4.56;65.03
49825;BME280;35714;55.708;37.478;2023-04-01T05:11:52;98100.31;;;4.64;64.79
49825;BME280;35714;55.708;37.478;2023-04-01T05:14:19;98089.81;;;4.74;64.72
49825;BME280;35714;55.708;37.478;2023-04-01T05:16:54;98106.53;;;4.88;64.12
49825;BME280;35714;55.708;37.478;2023-04-01T05:19:19;98101.16;;;4.88;64.27
49825;BME280;35714;55.708;37.478;2023-04-01T05:21:45;98094.63;;;4.84;64.19
49825;BME280;35714;55.708;37.478;2023-04-01T05:24:11;98103.06;;;4.99;64.01
49825;BME280;35714;55.708;37.478;2023-04-01T05:26:38;98114.53;;;5.06;63.99
49825;BME280;35714;55.708;37.478;2023-04-01T05:29:04;98111.94;;;5.12;63.59
49825;BME280;35714;55.708;37.478;2023-04-01T05:31:31;98106.69;;;5.17;63.36
49825;BME280;35714;55.708;37.478;2023-04-01T05:33:57;98109.28;;;5.23;63.73
49825;BME280;35714;55.708;37.478;2023-04-01T05:36:22;98112.44;;;5.32;63.29
49825;BME280;35714;55.708;37.478;2023-04-01T05:38:49;98099.09;;;5.37;63.01
49825;BME280;35714;55.708;37.478;2023-04-01T05:41:18;98113.84;;;5.47;62.83
49825;BME280;35714;55.708;37.478;2023-04-01T05:43:45;98113.25;;;5.45;62.58
49825;BME280;35714;55.708;37.478;2023-04-01T05:46:33;98111.50;;;5.38;62.59
49825;BME280;35714;55.708;37.478;2023-04-01T05:49:10;98109.38;;;5.40;62.57
49825;BME280;35714;55.708;37.478;2023-04-01T05:51:36;98114.75;;;5.40;62.72
49825;BME280;35714;55.708;37.478;2023-04-01T05:54:03;98122.97;;;5.46;62.97
49825;BME280;35714;55.708;37.478;2023-04-01T05:56:29;98117.34;;;5.47;62.91
49825;BME280;35714;55.708;37.478;2023-04-01T05:58:55;98121.19;;;5.51;62.59
49825;BME280;35714;55.708;37.478;2023-04-01T06:01:22;98116.41;;;5.53;62.64
49825;BME280;35714;55.708;37.478;2023-04-01T06:03:48;98117.34;;;5.59;62.48
49825;BME280;35714;55.708;37.478;2023-04-01T06:06:16;98114.75;;;5.64;62.26
49825;BME280;35714;55.708;37.478;2023-04-01T06:08:44;98124.47;;;5.77;62.31
49825;BME280;35714;55.708;37.478;2023-04-01T06:17:01;98122.91;;;5.93;61.35
49825;BME280;35714;55.708;37.478;2023-04-01T06:19:31;98131.84;;;5.82;61.47
49825;BME280;35714;55.708;37.478;2023-04-01T06:22:11;98140.94;;;5.81;61.59
49825;BME280;35714;55.708;37.478;2023-04-01T06:30:35;98138.91;;;6.11;61.51
49825;BME280;35714;55.708;37.478;2023-04-01T06:38:45;98143.88;;;6.43;60.21
49825;BME280;35714;55.708;37.478;2023-04-01T06:56:32;98159.47;;;6.70;58.85
49825;BME280;35714;55.708;37.478;2023-04-01T06:59:17;98156.84;;;6.75;58.52
49825;BME280;35714;55.708;37.478;2023-04-01T07:02:01;98149.34;;;6.77;59.16
49825;BME280;35714;55.708;37.478;2023-04-01T07:04:32;98161.81;;;6.95;59.07
49825;BME280;35714;55.708;37.478;2023-04-01T07:07:05;98170.00;;;7.17;58.59
49825;BME280;35714;55.708;37.478;2023-04-01T07:09:41;98157.59;;;7.33;58.38
49825;BME280;35714;55.708;37.478;2023-04-01T07:12:49;98163.75;;;7.85;57.69
49825;BME280;35714;55.708;37.478;2023-04-01T07:15:33;98148.16;;;8.09;56.97
49825;BME280;35714;55.708;37.478;2023-04-01T07:18:12;98164.50;;;8.63;56.69
49825;BME280;35714;55.708;37.478;2023-04-01T07:20:39;98165.44;;;9.01;55.94
49825;BME280;35714;55.708;37.478;2023-04-01T07:23:19;98166.22;;;9.29;54.54
49825;BME280;35714;55.708;37.478;2023-04-01T07:26:18;98171.13;;;9.32;53.47
49825;BME280;35714;55.708;37.478;2023-04-01T07:29:09;98173.34;;;9.41;51.61
49825;BME280;35714;55.708;37.478;2023-04-01T07:34:55;98177.72;;;9.47;50.99
49825;BME280;35714;55.708;37.478;2023-04-01T07:37:45;98179.97;;;9.60;50.38
49825;BME280;35714;55.708;37.478;2023-04-01T07:40:45;98173.50;;;9.61;49.64
49825;BME280;35714;55.708;37.478;2023-04-01T07:49:04;98182.66;;;9.55;48.59
49825;BME280;35714;55.708;37.478;2023-04-01T07:54:31;98189.44;;;9.57;48.92
49825;BME280;35714;55.708;37.478;2023-04-01T07:57:27;98184.19;;;9.78;48.82
49825;BME280;35714;55.708;37.478;2023-04-01T08:00:07;98199.72;;;9.98;48.70
49825;BME280;35714;55.708;37.478;2023-04-01T08:06:26;98199.56;;;10.15;46.40
49825;BME280;35714;55.708;37.478;2023-04-01T08:11:44;98195.38;;;10.35;46.39
49825;BME280;35714;55.708;37.478;2023-04-01T08:14:58;98199.03;;;10.66;46.55
49825;BME280;35714;55.708;37.478;2023-04-01T08:20:46;98200.00;;;12.00;44.39
49825;BME280;35714;55.708;37.478;2023-04-01T08:23:16;98195.31;;;12.26;42.66
49825;BME280;35714;55.708;37.478;2023-04-01T08:28:46;98199.66;;;12.22;42.54
49825;BME280;35714;55.708;37.478;2023-04-01T08:31:26;98206.72;;;12.28;42.97
49825;BME280;35714;55.708;37.478;2023-04-01T08:33:56;98202.88;;;12.40;42.92
49825;BME280;35714;55.708;37.478;2023-04-01T08:36:31;98214.97;;;13.28;41.48
49825;BME280;35714;55.708;37.478;2023-04-01T08:39:16;98209.06;;;14.43;39.29
49825;BME280;35714;55.708;37.478;2023-04-01T08:50:23;98218.50;;;16.22;35.05
49825;BME280;35714;55.708;37.478;2023-04-01T08:56:06;98219.31;;;16.92;33.84
49825;BME280;35714;55.708;37.478;2023-04-01T09:24:42;98249.28;;;19.19;27.55
49825;BME280;35714;55.708;37.478;2023-04-01T09:27:26;98243.84;;;18.79;26.87
49825;BME280;35714;55.708;37.478;2023-04-01T09:30:03;98243.03;;;18.47;27.14
49825;BME280;35714;55.708;37.478;2023-04-01T09:35:47;98239.25;;;18.02;29.90
49825;BME280;35714;55.708;37.478;2023-04-01T09:38:30;98245.22;;;19.07;27.21
49825;BME280;35714;55.708;37.478;2023-04-01T09:47:16;98251.97;;;18.21;27.52
49825;BME280;35714;55.708;37.478;2023-04-01T10:12:47;98269.59;;;18.60;26.79
49825;BME280;35714;55.708;37.478;2023-04-01T10:29:54;98280.38;;;19.98;24.40
49825;BME280;35714;55.708;37.478;2023-04-01T10:55:45;98287.50;;;21.83;22.73
49825;BME280;35714;55.708;37.478;2023-04-01T11:16:35;98287.84;;;18.02;25.26
49825;BME280;35714;55.708;37.478;2023-04-01T11:32:42;98293.19;;;16.04;27.97
49825;BME280;35714;55.708;37.478;2023-04-01T11:40:54;98303.59;;;15.64;28.93
49825;BME280;35714;55.708;37.478;2023-04-01T11:43:43;98310.91;;;15.49;29.31
49825;BME280;35714;55.708;37.478;2023-04-01T11:50:03;98308.22;;;14.82;30.82
49825;BME280;35714;55.708;37.478;2023-04-01T11:55:38;98304.03;;;14.07;32.50
49825;BME280;35714;55.708;37.478;2023-04-01T12:06:29;98313.25;;;13.27;33.33
49825;BME280;35714;55.708;37.478;2023-04-01T12:09:22;98310.13;;;12.89;34.27
49825;BME280;35714;55.708;37.478;2023-04-01T12:18:10;98322.50;;;12.45;35.85
49825;BME280;35714;55.708;37.478;2023-04-01T12:31:22;98325.22;;;12.14;36.39
49825;BME280;35714;55.708;37.478;2023-04-01T12:34:25;98316.53;;;12.33;36.02
49825;BME280;35714;55.708;37.478;2023-04-01T12:40:18;98333.88;;;12.52;35.40
49825;BME280;35714;55.708;37.478;2023-04-01T12:45:32;98328.47;;;12.37;35.29
49825;BME280;35714;55.708;37.478;2023-04-01T12:56:14;98336.31;;;12.69;34.29
49825;BME280;35714;55.708;37.478;2023-04-01T13:17:24;98354.22;;;11.72;35.00
49825;BME280;35714;55.708;37.478;2023-04-01T13:26:26;98333.72;;;10.65;36.75
49825;BME280;35714;55.708;37.478;2023-04-01T13:31:52;98370.28;;;10.58;37.24
49825;BME280;35714;55.708;37.478;2023-04-01T13:37:24;98372.91;;;10.42;38.10
49825;BME280;35714;55.708;37.478;2023-04-01T13:40:30;98375.03;;;10.40;38.41
49825;BME280;35714;55.708;37.478;2023-04-01T14:07:10;98404.50;;;9.50;45.66
49825;BME280;35714;55.708;37.478;2023-04-01T14:12:35;98401.97;;;9.21;46.85
49825;BME280;35714;55.708;37.478;2023-04-01T14:20:48;98405.13;;;9.13;47.45
49825;BME280;35714;55.708;37.478;2023-04-01T14:31:30;98418.09;;;9.11;47.83
49825;BME280;35714;55.708;37.478;2023-04-01T14:37:23;98420.34;;;9.19;47.85
49825;BME280;35714;55.708;37.478;2023-04-01T14:42:49;98426.63;;;9.02;48.19
49825;BME280;35714;55.708;37.478;2023-04-01T14:48:21;98433.91;;;9.02;48.95
49825;BME280;35714;55.708;37.478;2023-04-01T14:50:53;98429.25;;;8.97;49.25
49825;BME280;35714;55.708;37.478;2023-04-01T14:55:51;98439.44;;;8.90;51.42
49825;BME280;35714;55.708;37.478;2023-04-01T14:58:19;98441.84;;;8.70;51.72
49825;BME280;35714;55.708;37.478;2023-04-01T15:03:40;98448.78;;;8.48;52.71
49825;BME280;35714;55.708;37.478;2023-04-01T15:08:54;98455.28;;;8.36;53.67
49825;BME280;35714;55.708;37.478;2023-04-01T15:20:15;98474.63;;;8.27;55.39
49825;BME280;35714;55.708;37.478;2023-04-01T15:25:45;98473.91;;;8.03;56.11
49825;BME280;35714;55.708;37.478;2023-04-01T15:31:16;98481.09;;;7.98;56.05
49825;BME280;35714;55.708;37.478;2023-04-01T15:33:59;98481.56;;;7.94;55.99
49825;BME280;35714;55.708;37.478;2023-04-01T15:44:55;98493.06;;;8.02;56.82
49825;BME280;35714;55.708;37.478;2023-04-01T15:55:18;98511.09;;;8.13;56.73
49825;BME280;35714;55.708;37.478;2023-04-01T16:01:14;98519.31;;;8.06;57.59
49825;BME280;35714;55.708;37.478;2023-04-01T16:17:59;98539.16;;;7.59;60.61
49825;BME280;35714;55.708;37.478;2023-04-01T16:20:53;98542.91;;;7.58;61.11
49825;BME280;35714;55.708;37.478;2023-04-01T16:26:09;98546.19;;;7.61;61.10
49825;BME280;35714;55.708;37.478;2023-04-01T16:28:56;98543.00;;;7.64;61.37
49825;BME280;35714;55.708;37.478;2023-04-01T16:31:31;98547.84;;;7.62;61.35
49825;BME280;35714;55.708;37.478;2023-04-01T16:37:27;98552.75;;;7.65;61.43
49825;BME280;35714;55.708;37.478;2023-04-01T16:42:47;98555.84;;;7.56;61.53
49825;BME280;35714;55.708;37.478;2023-04-01T16:51:19;98567.28;;;7.64;61.37
49825;BME280;35714;55.708;37.478;2023-04-01T16:53:49;98569.41;;;7.62;61.48
49825;BME280;35714;55.708;37.478;2023-04-01T16:56:22;98571.66;;;7.65;61.38
49825;BME280;35714;55.708;37.478;2023-04-01T17:01:27;98570.59;;;7.66;61.62
49825;BME280;35714;55.708;37.478;2023-04-01T17:07:10;98570.59;;;7.66;61.55
49825;BME280;35714;55.708;37.478;2023-04-01T17:17:59;98579.03;;;7.69;62.02
49825;BME280;35714;55.708;37.478;2023-04-01T17:20:50;98579.75;;;7.65;61.89
49825;BME280;35714;55.708;37.478;2023-04-01T17:23:27;98580.78;;;7.64;61.63
49825;BME280;35714;55.708;37.478;2023-04-01T17:26:10;98582.69;;;7.63;61.82
49825;BME280;35714;55.708;37.478;2023-04-01T17:28:57;98582.91;;;7.62;61.99
49825;BME280;35714;55.708;37.478;2023-04-01T17:31:41;98587.72;;;7.59;61.90
49825;BME280;35714;55.708;37.478;2023-04-01T17:45:42;98587.13;;;7.57;62.24
49825;BME280;35714;55.708;37.478;2023-04-01T17:51:28;98596.75;;;7.53;62.52
49825;BME280;35714;55.708;37.478;2023-04-01T18:02:53;98595.00;;;7.47;62.57
49825;BME280;35714;55.708;37.478;2023-04-01T18:05:27;98597.81;;;7.52;62.67
49825;BME280;35714;55.708;37.478;2023-04-01T18:14:36;98606.00;;;7.34;63.28
49825;BME280;35714;55.708;37.478;2023-04-01T18:22:23;98613.78;;;7.42;63.28
49825;BME280;35714;55.708;37.478;2023-04-01T18:27:43;98621.16;;;7.47;63.09
49825;BME280;35714;55.708;37.478;2023-04-01T18:30:12;98626.19;;;7.43;63.33
49825;BME280;35714;55.708;37.478;2023-04-01T18:32:59;98621.50;;;7.50;63.24
49825;BME280;35714;55.708;37.478;2023-04-01T18:35:52;98639.81;;;7.48;63.35
49825;BME280;35714;55.708;37.478;2023-04-01T18:38:31;98628.06;;;7.43;63.29
49825;BME280;35714;55.708;37.478;2023-04-01T18:46:22;98649.41;;;7.44;63.52
49825;BME280;35714;55.708;37.478;2023-04-01T18:51:56;98649.63;;;7.54;63.59
49825;BME280;35714;55.708;37.478;2023-04-01T18:57:19;98655.50;;;7.51;63.59
49825;BME280;35714;55.708;37.478;2023-04-01T18:59:50;98662.56;;;7.52;63.57
49825;BME280;35714;55.708;37.478;2023-04-01T19:21:58;98648.94;;;7.35;64.31
49825;BME280;35714;55.708;37.478;2023-04-01T19:25:05;98663.00;;;7.49;64.29
49825;BME280;35714;55.708;37.478;2023-04-01T19:27:48;98660.22;;;7.44;64.47
49825;BME280;35714;55.708;37.478;2023-04-01T19:30:31;98671.00;;;7.44;64.48
49825;BME280;35714;55.708;37.478;2023-04-01T19:38:20;98675.66;;;7.37;64.89
49825;BME280;35714;55.708;37.478;2023-04-01T19:46:53;98675.44;;;7.38;65.18
49825;BME280;35714;55.708;37.478;2023-04-01T19:52:28;98682.25;;;7.41;65.21
49825;BME280;35714;55.708;37.478;2023-04-01T20:16:06;98692.91;;;7.36;65.95
49825;BME280;35714;55.708;37.478;2023-04-01T20:21:33;98691.28;;;7.47;65.78
49825;BME280;35714;55.708;37.478;2023-04-01T20:24:23;98684.94;;;7.53;65.70
49825;BME280;35714;55.708;37.478;2023-04-01T20:27:31;98688.59;;;7.58;65.61
49825;BME280;35714;55.708;37.478;2023-04-01T20:30:15;98681.19;;;7.54;65.74
49825;BME280;35714;55.708;37.478;2023-04-01T20:32:55;98683.09;;;7.53;65.72
49825;BME280;35714;55.708;37.478;2023-04-01T20:35:49;98682.63;;;7.56;65.51
49825;BME280;35714;55.708;37.478;2023-04-01T20:38:33;98688.81;;;7.57;65.33
49825;BME280;35714;55.708;37.478;2023-04-01T20:46:45;98676.75;;;7.59;65.34
49825;BME280;35714;55.708;37.478;2023-04-01T20:57:21;98689.31;;;7.66;65.40
49825;BME280;35714;55.708;37.478;2023-04-01T21:13:35;98696.59;;;7.77;65.18
49825;BME280;35714;55.708;37.478;2023-04-01T21:21:55;98695.28;;;7.80;64.96
49825;BME280;35714;55.708;37.478;2023-04-01T21:34:42;98714.66;;;7.88;64.98
49825;BME280;35714;55.708;37.478;2023-04-01T21:37:31;98717.94;;;7.90;65.18
49825;BME280;35714;55.708;37.478;2023-04-01T21:54:38;98716.88;;;7.91;65.14
49825;BME280;35714;55.708;37.478;2023-04-01T22:00:30;98727.69;;;7.91;65.15
49825;BME280;35714;55.708;37.478;2023-04-01T22:08:27;98735.06;;;7.84;65.70
49825;BME280;35714;55.708;37.478;2023-04-01T22:11:08;98731.66;;;7.89;65.77
49825;BME280;35714;55.708;37.478;2023-04-01T22:13:41;98731.31;;;7.85;66.02
49825;BME280;35714;55.708;37.478;2023-04-01T22:19:03;98718.88;;;7.84;65.88
49825;BME280;35714;55.708;37.478;2023-04-01T22:21:58;98736.13;;;7.95;65.78
49825;BME280;35714;55.708;37.478;2023-04-01T22:24:40;98727.22;;;7.94;65.68
49825;BME280;35714;55.708;37.478;2023-04-01T22:30:10;98722.84;;;7.93;65.85
49825;BME280;35714;55.708;37.478;2023-04-01T22:32:48;98725.22;;;7.90;66.16
49825;BME280;35714;55.708;37.478;2023-04-01T22:41:02;98734.25;;;7.95;66.14
49825;BME280;35714;55.708;37.478;2023-04-01T22:43:42;98731.56;;;7.95;66.21
49825;BME280;35714;55.708;37.478;2023-04-01T22:46:44;98733.19;;;7.97;66.54
49825;BME280;35714;55.708;37.478;2023-04-01T22:51:51;98734.72;;;7.81;67.41
49825;BME280;35714;55.708;37.478;2023-04-01T22:54:42;98734.03;;;7.73;68.11
49825;BME280;35714;55.708;37.478;2023-04-01T22:59:42;98731.88;;;7.64;68.61
49825;BME280;35714;55.708;37.478;2023-04-01T23:02:28;98737.88;;;7.66;68.76
49825;BME280;35714;55.708;37.478;2023-04-01T23:04:58;98734.09;;;7.67;69.08
49825;BME280;35714;55.708;37.478;2023-04-01T23:07:41;98730.25;;;7.63;69.96
49825;BME280;35714;55.708;37.478;2023-04-01T23:13:05;98736.22;;;7.65;69.49
49825;BME280;35714;55.708;37.478;2023-04-01T23:15:36;98744.09;;;7.66;69.61
49825;BME280;35714;55.708;37.478;2023-04-01T23:23:53;98747.75;;;7.72;69.83
49825;BME280;35714;55.708;37.478;2023-04-01T23:26:51;98736.22;;;7.76;69.48
49825;BME280;35714;55.708;37.478;2023-04-01T23:29:19;98736.50;;;7.75;69.59
49825;BME280;35714;55.708;37.478;2023-04-01T23:31:47;98738.09;;;7.76;69.41
49825;BME280;35714;55.708;37.478;2023-04-01T23:36:50;98741.28;;;7.85;69.54
49825;BME280;35714;55.708;37.478;2023-04-01T23:39:25;98748.31;;;7.86;69.34
49825;BME280;35714;55.708;37.478;2023-04-01T23:41:58;98745.16;;;7.89;69.47
49825;BME280;35714;55.708;37.478;2023-04-01T23:44:26;98749.16;;;7.86;69.40
49825;BME280;35714;55.708;37.478;2023-04-01T23:46:54;98744.56;;;7.87;69.13
49825;BME280;35714;55.708;37.478;2023-04-01T23:49:28;98734.59;;;7.87;69.19
49825;BME280;35714;55.708;37.478;2023-04-01T23:51:59;98736.81;;;7.90;69.35
49825;BME280;35714;55.708;37.478;2023-04-01T23:54:33;98741.75;;;7.93;69.24
49825;BME280;35714;55.708;37.478;2023-04-01T23:57:04;98740.13;;;7.92;69.37
49825;BME280;35714;55.708;37.478;2023-04-01T23:59:35;98748.22;;;7.92;69.37
